Time;durP1;ratioP1;P1;durP2;ratioP2;P2;SDS_P1;SDS_P2;PMS_P1;PMS_P2;Temp;Humidity;BMP_temperature;BMP_pressure;BME280_temperature;BME280_humidity;BME280_pressure;Samples;Min_cycle;Max_cycle;Signal;HPM_P1;HPM_P2
2021/03/04 00:00:50;;;;;;;11.13;8.93;;;5.90;99.90;;;;;;4880671;29;20474;-77
2021/03/04 00:03:16;;;;;;;9.98;8.52;;;5.90;99.90;;;;;;4875441;29;20933;-77
2021/03/04 00:05:41;;;;;;;13.20;8.37;;;5.90;99.90;;;;;;4896912;29;20488;-77
2021/03/04 00:08:07;;;;;;;12.00;8.43;;;5.80;99.90;;;;;;4881623;29;20423;-77
2021/03/04 00:10:33;;;;;;;10.70;7.93;;;5.80;99.90;;;;;;4900228;29;20409;-77
2021/03/04 00:12:59;;;;;;;11.63;8.40;;;5.80;99.90;;;;;;4898689;29;20434;-77
2021/03/04 00:15:27;;;;;;;12.80;8.80;;;5.70;99.90;;;;;;4888242;29;20461;-77
2021/03/04 00:17:52;;;;;;;11.27;8.10;;;5.70;99.90;;;;;;4878085;29;20487;-77
2021/03/04 00:20:23;;;;;;;13.13;8.65;;;5.70;99.90;;;;;;4883944;29;21177;-76
2021/03/04 00:22:48;;;;;;;9.27;7.75;;;5.70;99.90;;;;;;4879649;29;20774;-76
2021/03/04 00:25:14;;;;;;;11.27;8.60;;;5.70;99.90;;;;;;4887078;29;20416;-76
2021/03/04 00:27:40;;;;;;;12.93;7.93;;;5.60;99.90;;;;;;4909023;29;20965;-77
2021/03/04 00:30:07;;;;;;;10.70;8.30;;;5.60;99.90;;;;;;4881238;29;20443;-77
2021/03/04 00:32:32;;;;;;;14.75;9.27;;;5.60;99.90;;;;;;4879874;29;20953;-76
2021/03/04 00:34:58;;;;;;;11.07;8.35;;;5.60;99.90;;;;;;4911468;29;20413;-76
2021/03/04 00:37:24;;;;;;;13.17;8.60;;;5.60;99.90;;;;;;4892003;29;20926;-77
2021/03/04 00:39:49;;;;;;;11.57;8.52;;;5.40;99.90;;;;;;4879801;29;20505;-76
2021/03/04 00:42:15;;;;;;;10.98;8.13;;;5.60;99.90;;;;;;4887916;29;20415;-77
2021/03/04 00:44:41;;;;;;;11.03;8.37;;;5.50;99.90;;;;;;4895278;29;20428;-77
2021/03/04 00:47:06;;;;;;;12.40;9.13;;;5.40;99.90;;;;;;4873512;29;20961;-77
2021/03/04 00:49:32;;;;;;;10.75;8.52;;;5.40;99.90;;;;;;4909584;29;20409;-78
2021/03/04 00:51:58;;;;;;;12.73;8.33;;;5.40;99.90;;;;;;4881779;29;20440;-76
2021/03/04 00:54:23;;;;;;;11.30;9.02;;;5.40;99.90;;;;;;4896834;29;20928;-77
2021/03/04 00:56:49;;;;;;;11.23;8.98;;;5.40;99.90;;;;;;4882788;29;20416;-78
2021/03/04 00:59:15;;;;;;;11.33;8.77;;;5.50;99.90;;;;;;4872685;29;20411;-78
2021/03/04 01:01:41;;;;;;;13.63;9.90;;;5.40;99.90;;;;;;4867192;29;20426;-77
2021/03/04 01:04:06;;;;;;;12.43;9.43;;;5.30;99.90;;;;;;4885384;29;20793;-78
2021/03/04 01:06:32;;;;;;;13.43;9.77;;;5.50;99.90;;;;;;4854655;29;20676;-77
2021/03/04 01:08:57;;;;;;;13.20;10.17;;;5.40;99.90;;;;;;4889993;29;20410;-77
2021/03/04 01:11:23;;;;;;;14.20;10.68;;;5.40;99.90;;;;;;4862611;29;20451;-78
2021/03/04 01:13:49;;;;;;;14.87;11.03;;;5.30;99.90;;;;;;4885817;29;20463;-77
2021/03/04 01:16:14;;;;;;;16.48;11.43;;;5.40;99.90;;;;;;4891367;29;20716;-78
2021/03/04 01:18:40;;;;;;;15.38;11.75;;;5.40;99.90;;;;;;4878816;29;20406;-78
2021/03/04 01:21:06;;;;;;;15.47;11.60;;;5.30;99.90;;;;;;4854794;29;20434;-77
2021/03/04 01:23:31;;;;;;;15.43;11.40;;;5.30;99.90;;;;;;4894632;29;20476;-78
2021/03/04 01:25:57;;;;;;;13.00;11.00;;;5.20;99.90;;;;;;4891293;29;20950;-78
2021/03/04 01:28:23;;;;;;;18.97;12.70;;;5.20;99.90;;;;;;4868394;29;20422;-78
2021/03/04 01:30:48;;;;;;;14.50;11.73;;;5.30;99.90;;;;;;4883413;29;20409;-78
2021/03/04 01:33:14;;;;;;;15.95;12.00;;;5.20;99.90;;;;;;4899898;29;20471;-78
2021/03/04 01:35:40;;;;;;;14.93;11.60;;;5.20;99.90;;;;;;4884424;29;20430;-78
2021/03/04 01:38:05;;;;;;;16.52;12.20;;;5.30;99.90;;;;;;4852245;29;20866;-78
2021/03/04 01:40:31;;;;;;;15.88;12.00;;;5.30;99.90;;;;;;4900152;29;20461;-77
2021/03/04 01:42:57;;;;;;;18.33;13.00;;;5.30;99.90;;;;;;4869739;29;20417;-77
2021/03/04 01:45:22;;;;;;;16.25;13.02;;;5.30;99.90;;;;;;4887386;29;20442;-77
2021/03/04 01:47:50;;;;;;;16.47;13.03;;;5.30;99.90;;;;;;4883693;29;20950;-77
2021/03/04 01:50:16;;;;;;;17.65;13.07;;;5.30;99.90;;;;;;4889393;29;20415;-77
2021/03/04 01:52:42;;;;;;;16.83;13.25;;;5.30;99.90;;;;;;4902174;29;20437;-76
2021/03/04 01:55:08;;;;;;;19.90;13.15;;;5.30;99.90;;;;;;4880521;29;20491;-76
2021/03/04 01:57:34;;;;;;;19.45;14.07;;;5.30;99.90;;;;;;4878657;29;20987;-77
2021/03/04 02:00:00;;;;;;;17.07;13.67;;;5.30;99.90;;;;;;4877624;29;20497;-77
2021/03/04 02:05:57;;;;;;;21.70;14.30;;;5.30;99.90;;;;;;4856525;29;20422;-76
2021/03/04 02:08:39;;;;;;;18.97;13.53;;;5.40;99.90;;;;;;4898315;29;20400;-75
2021/03/04 02:11:08;;;;;;;19.65;14.88;;;5.40;99.90;;;;;;4907093;29;20451;-76
2021/03/04 02:14:02;;;;;;;19.45;14.30;;;5.30;99.90;;;;;;4912162;29;20431;-77
2021/03/04 02:16:37;;;;;;;19.63;14.88;;;5.30;99.90;;;;;;4901604;29;20494;-77
2021/03/04 02:19:08;;;;;;;17.83;14.00;;;5.30;99.90;;;;;;4885587;29;20459;-77
2021/03/04 02:21:37;;;;;;;20.77;14.10;;;5.30;99.90;;;;;;4840002;29;20412;-78
2021/03/04 02:24:22;;;;;;;19.38;15.35;;;5.40;99.90;;;;;;4884138;29;20417;-78
2021/03/04 02:27:06;;;;;;;19.35;15.13;;;5.30;99.90;;;;;;4880529;29;20436;-77
2021/03/04 02:29:48;;;;;;;20.27;16.20;;;5.30;99.90;;;;;;4876562;29;20412;-77
2021/03/04 02:32:16;;;;;;;20.83;15.68;;;5.40;99.90;;;;;;4869691;29;20438;-78
2021/03/04 02:34:47;;;;;;;19.97;15.20;;;5.30;99.90;;;;;;4893744;29;20435;-76
2021/03/04 02:40:59;;;;;;;20.65;15.60;;;5.20;99.90;;;;;;4831340;29;20414;-77
2021/03/04 02:43:25;;;;;;;22.45;16.75;;;5.20;99.90;;;;;;4857931;29;20849;-77
2021/03/04 02:45:51;;;;;;;19.15;14.60;;;5.10;99.90;;;;;;4871595;29;20448;-77
2021/03/04 02:48:18;;;;;;;21.67;16.55;;;5.00;99.90;;;;;;4873046;29;20465;-78
2021/03/04 02:50:45;;;;;;;23.75;16.73;;;5.10;99.90;;;;;;4869054;29;20482;-78
2021/03/04 02:53:11;;;;;;;18.80;15.40;;;5.00;99.90;;;;;;4893763;29;20433;-77
2021/03/04 02:55:37;;;;;;;19.13;15.15;;;5.00;99.90;;;;;;4890446;29;20413;-77
2021/03/04 02:58:02;;;;;;;18.55;15.50;;;5.00;99.90;;;;;;4887781;29;20477;-77
2021/03/04 03:00:29;;;;;;;20.75;15.88;;;5.00;99.90;;;;;;4896685;29;20479;-77
2021/03/04 03:02:56;;;;;;;19.50;15.52;;;5.00;99.90;;;;;;4869066;29;20410;-77
2021/03/04 03:05:23;;;;;;;18.80;15.93;;;4.90;99.90;;;;;;4886127;29;21043;-77
2021/03/04 03:07:49;;;;;;;18.70;16.08;;;4.90;99.90;;;;;;4879937;29;20460;-77
2021/03/04 03:10:15;;;;;;;22.30;17.20;;;4.90;99.90;;;;;;4879238;29;20406;-76
2021/03/04 03:12:42;;;;;;;20.73;16.40;;;4.90;99.90;;;;;;4891102;29;20936;-77
2021/03/04 03:15:09;;;;;;;23.43;16.83;;;4.90;99.90;;;;;;4879027;29;20477;-77
2021/03/04 03:17:36;;;;;;;20.77;16.27;;;4.90;99.90;;;;;;4876926;29;20474;-78
2021/03/04 03:20:09;;;;;;;22.92;16.90;;;4.80;99.90;;;;;;4871197;29;20932;-78
2021/03/04 03:22:35;;;;;;;19.80;15.70;;;4.80;99.90;;;;;;4896658;29;20477;-77
2021/03/04 03:25:01;;;;;;;21.35;16.20;;;4.80;99.90;;;;;;4870566;29;20919;-77
2021/03/04 03:27:27;;;;;;;23.08;16.67;;;4.80;99.90;;;;;;4858920;29;20416;-76
2021/03/04 03:29:54;;;;;;;19.67;15.93;;;4.90;99.90;;;;;;4878316;29;20426;-77
2021/03/04 03:32:21;;;;;;;23.88;17.45;;;4.80;99.90;;;;;;4887468;29;20430;-76
2021/03/04 03:34:47;;;;;;;21.48;16.92;;;4.80;99.90;;;;;;4849034;29;20412;-76
2021/03/04 03:37:12;;;;;;;23.27;17.20;;;4.80;99.90;;;;;;4871482;29;20470;-77
2021/03/04 03:39:38;;;;;;;23.50;17.90;;;4.80;99.90;;;;;;4866143;29;20409;-76
2021/03/04 03:42:04;;;;;;;23.05;18.17;;;4.80;99.90;;;;;;4866399;29;20450;-77
2021/03/04 03:44:31;;;;;;;26.00;19.00;;;4.80;99.90;;;;;;4889004;29;20871;-78
2021/03/04 03:46:57;;;;;;;23.58;18.23;;;4.80;99.90;;;;;;4874629;29;21040;-78
2021/03/04 03:49:22;;;;;;;23.70;18.23;;;4.80;99.90;;;;;;4880149;29;20415;-77
2021/03/04 03:51:48;;;;;;;24.53;17.97;;;4.80;99.90;;;;;;4891742;29;20418;-77
2021/03/04 03:54:14;;;;;;;25.50;18.83;;;4.80;99.90;;;;;;4887534;29;20421;-76
2021/03/04 03:56:39;;;;;;;28.87;18.60;;;4.80;99.90;;;;;;4875034;29;20440;-76
2021/03/04 03:59:05;;;;;;;29.33;18.50;;;4.80;99.90;;;;;;4882410;29;20502;-76
2021/03/04 04:01:32;;;;;;;24.83;19.00;;;4.70;99.90;;;;;;4850830;29;20762;-78
2021/03/04 04:03:58;;;;;;;23.55;18.42;;;4.70;99.90;;;;;;4871429;29;20460;-77
2021/03/04 04:06:25;;;;;;;24.77;19.15;;;4.70;99.90;;;;;;4857367;29;20410;-76
2021/03/04 04:08:52;;;;;;;24.52;18.90;;;4.70;99.90;;;;;;4882903;29;20420;-76
2021/03/04 04:11:23;;;;;;;26.63;20.08;;;4.70;99.90;;;;;;4908656;29;20477;-77
2021/03/04 04:13:48;;;;;;;28.93;19.93;;;4.70;99.90;;;;;;4889866;29;20456;-77
2021/03/04 04:16:15;;;;;;;25.53;19.10;;;4.70;99.90;;;;;;4884263;29;20853;-74
2021/03/04 04:18:41;;;;;;;26.80;19.42;;;4.60;99.90;;;;;;4874498;29;20442;-75
2021/03/04 04:21:07;;;;;;;26.02;19.90;;;4.60;99.90;;;;;;4881585;29;20513;-74
2021/03/04 04:23:32;;;;;;;27.77;21.17;;;4.60;99.90;;;;;;4876635;29;20425;-74
2021/03/04 04:25:58;;;;;;;27.17;19.80;;;4.60;99.90;;;;;;4884746;29;20428;-74
2021/03/04 04:28:24;;;;;;;24.15;19.63;;;4.60;99.90;;;;;;4897432;29;20922;-73
2021/03/04 04:30:50;;;;;;;24.20;19.07;;;4.60;99.90;;;;;;4905450;29;20418;-74
2021/03/04 04:33:15;;;;;;;23.50;19.27;;;4.60;99.90;;;;;;4862164;29;20498;-74
2021/03/04 04:35:41;;;;;;;26.13;20.27;;;4.60;99.90;;;;;;4889908;29;20416;-74
2021/03/04 04:38:07;;;;;;;25.67;20.27;;;4.60;99.90;;;;;;4875214;29;20411;-75
2021/03/04 04:40:33;;;;;;;28.67;20.63;;;4.60;99.90;;;;;;4893862;29;20414;-77
2021/03/04 04:42:58;;;;;;;29.55;22.08;;;4.60;99.90;;;;;;4883903;29;20418;-76
2021/03/04 04:45:24;;;;;;;24.17;20.43;;;4.60;99.90;;;;;;4906508;29;20490;-76
2021/03/04 04:47:50;;;;;;;28.63;21.80;;;4.60;99.90;;;;;;4881531;29;20498;-76
2021/03/04 04:50:16;;;;;;;28.67;22.15;;;4.60;99.90;;;;;;4894005;29;20432;-76
2021/03/04 04:52:41;;;;;;;29.33;21.70;;;4.60;99.90;;;;;;4879817;29;20416;-76
2021/03/04 04:55:07;;;;;;;27.77;21.83;;;4.60;99.90;;;;;;4887870;29;20912;-76
2021/03/04 04:57:33;;;;;;;25.85;20.83;;;4.60;99.90;;;;;;4881840;29;20457;-76
2021/03/04 04:59:59;;;;;;;30.55;21.90;;;4.60;99.90;;;;;;4884583;29;20439;-76
2021/03/04 05:02:24;;;;;;;32.17;24.23;;;4.60;99.90;;;;;;4869509;29;20414;-76
2021/03/04 05:04:50;;;;;;;25.63;20.07;;;4.60;99.90;;;;;;4887706;29;21196;-74
2021/03/04 05:07:16;;;;;;;27.15;19.40;;;4.60;99.90;;;;;;4890079;29;20410;-76
2021/03/04 05:09:41;;;;;;;26.33;20.93;;;4.50;99.90;;;;;;4890494;29;20418;-76
2021/03/04 05:12:07;;;;;;;27.00;21.03;;;4.40;99.90;;;;;;4910790;29;20572;-76
2021/03/04 05:14:33;;;;;;;26.77;21.17;;;4.40;99.90;;;;;;4880707;29;21202;-76
2021/03/04 05:16:59;;;;;;;27.25;20.92;;;4.40;99.90;;;;;;4913026;29;20475;-76
2021/03/04 05:19:24;;;;;;;28.83;20.20;;;4.50;99.90;;;;;;4888778;29;20924;-75
2021/03/04 05:21:50;;;;;;;24.83;20.23;;;4.30;99.90;;;;;;4885980;29;20451;-75
2021/03/04 05:24:16;;;;;;;25.17;20.00;;;4.30;99.90;;;;;;4875780;29;20427;-74
2021/03/04 05:26:41;;;;;;;26.30;19.98;;;4.20;99.90;;;;;;4877557;29;20412;-75
2021/03/04 05:29:07;;;;;;;26.50;19.60;;;4.20;99.90;;;;;;4899906;29;20441;-75
2021/03/04 05:31:33;;;;;;;25.85;19.88;;;4.20;99.90;;;;;;4889853;29;20423;-75
2021/03/04 05:33:59;;;;;;;23.65;19.33;;;4.20;99.90;;;;;;4884147;29;20429;-76
2021/03/04 05:36:25;;;;;;;28.45;19.38;;;4.20;99.90;;;;;;4907130;29;20423;-78
2021/03/04 05:38:50;;;;;;;26.53;19.63;;;4.20;99.90;;;;;;4885430;29;20429;-75
2021/03/04 05:41:22;;;;;;;29.57;20.13;;;4.10;99.90;;;;;;4899812;29;20426;-75
2021/03/04 05:43:48;;;;;;;29.87;21.53;;;4.10;99.90;;;;;;4889482;29;20509;-76
2021/03/04 05:46:14;;;;;;;22.35;19.42;;;4.20;99.90;;;;;;4885139;29;20834;-76
2021/03/04 05:48:43;;;;;;;24.58;19.73;;;4.10;99.90;;;;;;4903214;29;20417;-76
2021/03/04 05:51:09;;;;;;;27.27;20.45;;;4.10;99.90;;;;;;4886590;29;20426;-75
2021/03/04 05:53:34;;;;;;;28.17;20.98;;;4.10;99.90;;;;;;4876002;29;20928;-75
2021/03/04 05:56:00;;;;;;;26.83;21.30;;;4.10;99.90;;;;;;4871835;29;20605;-75
2021/03/04 05:58:26;;;;;;;27.67;21.27;;;4.00;99.90;;;;;;4887934;29;20526;-75
2021/03/04 06:00:54;;;;;;;26.92;21.08;;;4.10;99.90;;;;;;4897767;29;20418;-75
2021/03/04 06:03:20;;;;;;;28.00;21.33;;;4.00;99.90;;;;;;4869575;29;20544;-75
2021/03/04 06:05:47;;;;;;;27.75;20.63;;;3.90;99.90;;;;;;4889390;29;20525;-76
2021/03/04 06:08:13;;;;;;;24.23;19.33;;;3.90;99.90;;;;;;4910550;29;20488;-77
2021/03/04 06:10:38;;;;;;;28.02;20.08;;;3.90;99.90;;;;;;4873542;29;20513;-78
2021/03/04 06:13:05;;;;;;;26.93;19.40;;;3.80;99.90;;;;;;4897712;29;20432;-78
2021/03/04 06:15:31;;;;;;;28.75;19.95;;;3.80;99.90;;;;;;4908494;29;20529;-78
2021/03/04 06:17:59;;;;;;;23.75;19.90;;;3.80;99.90;;;;;;4874611;29;20489;-77
2021/03/04 06:20:35;;;;;;;32.07;22.03;;;3.70;99.90;;;;;;4883330;29;20490;-76
2021/03/04 06:23:02;;;;;;;29.87;22.20;;;3.70;99.90;;;;;;4893358;29;21122;-78
2021/03/04 06:25:28;;;;;;;25.45;20.55;;;3.70;99.90;;;;;;4902394;29;20414;-77
2021/03/04 06:27:53;;;;;;;26.65;20.55;;;3.70;99.90;;;;;;4879170;29;20601;-77
2021/03/04 06:30:19;;;;;;;26.20;20.30;;;3.80;99.90;;;;;;4872285;29;20406;-77
2021/03/04 06:33:02;;;;;;;28.53;20.43;;;3.80;99.90;;;;;;4883411;29;20417;-77
2021/03/04 06:35:32;;;;;;;29.90;22.42;;;3.80;99.90;;;;;;4883521;29;20880;-77
2021/03/04 06:37:58;;;;;;;25.53;19.33;;;3.90;99.90;;;;;;4886451;29;20490;-77
2021/03/04 06:40:24;;;;;;;24.73;19.17;;;3.80;99.90;;;;;;4885815;29;20414;-77
2021/03/04 06:42:50;;;;;;;24.50;17.83;;;3.80;99.90;;;;;;4893051;29;20509;-78
2021/03/04 06:45:25;;;;;;;22.53;17.93;;;3.90;99.90;;;;;;4874560;29;20481;-77
2021/03/04 06:47:51;;;;;;;22.13;17.50;;;3.90;99.90;;;;;;4897054;29;20424;-77
2021/03/04 06:50:26;;;;;;;23.90;18.55;;;3.90;99.90;;;;;;4890113;29;20474;-77
2021/03/04 06:52:52;;;;;;;21.67;18.80;;;4.00;99.90;;;;;;4896306;29;20440;-78
2021/03/04 06:55:18;;;;;;;29.25;22.45;;;4.00;99.90;;;;;;4896578;29;20390;-77
2021/03/04 06:58:00;;;;;;;29.27;22.90;;;4.00;99.90;;;;;;4900623;29;20414;-77
2021/03/04 07:00:26;;;;;;;31.30;23.15;;;4.10;99.90;;;;;;4866965;29;20454;-77
2021/03/04 07:02:58;;;;;;;34.00;22.67;;;4.20;99.90;;;;;;4884489;29;20425;-78
2021/03/04 07:05:24;;;;;;;25.40;21.45;;;4.20;99.90;;;;;;4870956;29;20449;-77
2021/03/04 07:07:54;;;;;;;30.73;23.70;;;4.30;99.90;;;;;;4895248;29;20417;-77
2021/03/04 07:10:20;;;;;;;33.15;25.55;;;4.40;99.90;;;;;;4889596;29;20423;-77
2021/03/04 07:12:47;;;;;;;36.08;26.55;;;4.40;99.90;;;;;;4903224;29;20417;-77
2021/03/04 07:15:17;;;;;;;32.40;25.52;;;4.40;99.90;;;;;;4903147;29;20411;-77
2021/03/04 07:17:43;;;;;;;35.60;25.75;;;4.50;99.90;;;;;;4899556;29;20419;-77
2021/03/04 07:20:17;;;;;;;37.22;28.80;;;4.70;99.90;;;;;;4870984;29;20490;-77
2021/03/04 07:22:49;;;;;;;46.97;31.42;;;4.50;99.90;;;;;;4892882;29;20472;-77
2021/03/04 07:25:15;;;;;;;42.58;32.50;;;4.60;99.90;;;;;;4885002;29;20413;-77
2021/03/04 07:27:41;;;;;;;41.47;29.30;;;4.50;99.90;;;;;;4870260;29;20483;-77
2021/03/04 07:30:07;;;;;;;37.13;30.27;;;4.60;99.90;;;;;;4899391;29;20437;-77
2021/03/04 07:32:33;;;;;;;41.45;30.63;;;4.60;99.90;;;;;;4886065;29;20425;-77
2021/03/04 07:34:59;;;;;;;40.67;29.85;;;4.70;99.90;;;;;;4876038;29;20770;-77
2021/03/04 07:37:24;;;;;;;41.50;30.10;;;4.70;99.90;;;;;;4884981;29;20406;-77
2021/03/04 07:39:57;;;;;;;34.83;27.58;;;4.70;99.90;;;;;;4899093;29;20418;-78
2021/03/04 07:42:24;;;;;;;32.90;26.63;;;4.80;99.90;;;;;;4869094;29;20418;-77
2021/03/04 07:44:50;;;;;;;34.10;27.17;;;4.90;99.90;;;;;;4874212;29;20414;-77
2021/03/04 07:47:27;;;;;;;33.83;26.23;;;4.90;99.90;;;;;;4874993;29;21163;-77
2021/03/04 07:49:53;;;;;;;34.75;26.80;;;4.90;99.90;;;;;;4889698;29;20420;-76
2021/03/04 07:52:22;;;;;;;34.90;29.13;;;5.10;99.90;;;;;;4891156;29;20412;-77
2021/03/04 07:54:49;;;;;;;39.53;27.98;;;5.00;99.90;;;;;;4878083;29;20451;-77
2021/03/04 07:57:15;;;;;;;32.10;25.50;;;5.10;99.90;;;;;;4868409;29;20429;-78
2021/03/04 07:59:54;;;;;;;34.28;26.95;;;5.10;99.90;;;;;;4901338;29;20793;-76
2021/03/04 08:02:23;;;;;;;35.65;28.02;;;5.10;99.90;;;;;;4892386;29;20424;-77
2021/03/04 08:04:49;;;;;;;33.05;26.23;;;5.20;99.90;;;;;;4882883;29;20911;-77
2021/03/04 08:07:23;;;;;;;32.58;25.85;;;5.20;99.90;;;;;;4895529;29;20410;-77
2021/03/04 08:09:49;;;;;;;36.75;27.92;;;5.30;99.90;;;;;;4891723;29;20501;-78
2021/03/04 08:12:15;;;;;;;35.63;27.50;;;5.30;99.90;;;;;;4886226;29;20843;-77
2021/03/04 08:14:53;;;;;;;34.60;26.30;;;5.40;99.90;;;;;;4911475;29;20522;-77
2021/03/04 08:17:18;;;;;;;34.65;26.30;;;5.40;99.90;;;;;;4905491;29;20398;-78
2021/03/04 08:19:45;;;;;;;38.25;27.13;;;5.50;99.90;;;;;;4868975;29;20418;-78
2021/03/04 08:22:11;;;;;;;39.30;26.27;;;5.50;99.90;;;;;;4891331;29;20414;-78
2021/03/04 08:24:38;;;;;;;39.70;28.93;;;5.50;99.90;;;;;;4890050;29;20771;-78
2021/03/04 08:27:05;;;;;;;39.88;28.48;;;5.50;99.90;;;;;;4880314;29;20422;-79
2021/03/04 08:29:31;;;;;;;36.70;27.55;;;5.40;99.90;;;;;;4869548;29;20504;-78
2021/03/04 08:31:57;;;;;;;39.65;28.75;;;5.50;99.90;;;;;;4887151;29;20418;-78
2021/03/04 08:34:33;;;;;;;37.03;28.15;;;5.50;99.90;;;;;;4894357;29;20461;-78
2021/03/04 08:36:58;;;;;;;33.63;26.00;;;5.60;99.90;;;;;;4877848;29;20413;-78
2021/03/04 08:39:29;;;;;;;37.85;28.05;;;5.70;99.90;;;;;;4902266;29;20445;-78
2021/03/04 08:42:02;;;;;;;33.90;26.40;;;5.70;99.90;;;;;;4886390;29;20820;-77
2021/03/04 08:44:28;;;;;;;35.42;26.85;;;5.90;99.90;;;;;;4903204;29;20417;-78
2021/03/04 08:46:53;;;;;;;36.28;26.20;;;5.90;99.90;;;;;;4874626;29;20421;-78
2021/03/04 08:49:20;;;;;;;31.87;25.10;;;5.90;99.90;;;;;;4889471;29;20836;-78
2021/03/04 08:51:45;;;;;;;32.85;25.67;;;5.90;99.90;;;;;;4879458;29;20436;-78
2021/03/04 08:54:23;;;;;;;32.27;25.43;;;6.00;99.90;;;;;;4919310;29;20412;-79
2021/03/04 08:56:53;;;;;;;31.27;23.87;;;6.10;99.90;;;;;;4908159;29;20441;-78
2021/03/04 08:59:24;;;;;;;32.92;26.55;;;6.20;99.90;;;;;;4886704;29;20416;-78
2021/03/04 09:01:49;;;;;;;34.90;26.07;;;6.20;99.90;;;;;;4869343;29;20422;-78
2021/03/04 09:04:22;;;;;;;37.07;25.30;;;6.40;99.90;;;;;;4870703;29;20410;-79
2021/03/04 09:06:48;;;;;;;30.58;24.02;;;6.40;99.90;;;;;;4888236;29;20829;-78
2021/03/04 09:09:20;;;;;;;33.17;25.27;;;6.30;99.90;;;;;;4891395;29;20414;-78
2021/03/04 09:11:48;;;;;;;33.63;25.13;;;6.50;99.90;;;;;;4903609;29;20421;-78
2021/03/04 09:14:14;;;;;;;30.50;23.85;;;6.50;99.90;;;;;;4877159;29;20418;-78
2021/03/04 09:16:40;;;;;;;30.13;24.37;;;6.50;99.90;;;;;;4885095;29;20406;-79
2021/03/04 09:19:05;;;;;;;29.52;22.02;;;6.60;99.90;;;;;;4895223;29;20456;-79
2021/03/04 09:21:31;;;;;;;32.45;24.98;;;6.70;99.90;;;;;;4898990;29;20418;-78
2021/03/04 09:23:58;;;;;;;28.93;22.80;;;6.90;99.90;;;;;;4894142;29;20423;-78
2021/03/04 09:26:31;;;;;;;30.50;22.67;;;7.10;99.90;;;;;;4891734;29;20433;-78
2021/03/04 09:28:56;;;;;;;32.63;22.55;;;7.00;99.90;;;;;;4889596;29;20431;-78
2021/03/04 09:31:24;;;;;;;30.05;22.63;;;7.00;99.90;;;;;;4897308;29;20448;-79
2021/03/04 09:33:56;;;;;;;32.28;23.00;;;7.00;99.90;;;;;;4898828;29;20804;-78
2021/03/04 09:36:21;;;;;;;29.73;22.73;;;7.20;99.90;;;;;;4914111;29;20434;-78
2021/03/04 09:38:53;;;;;;;27.27;21.02;;;7.10;99.90;;;;;;4888283;29;20452;-78
2021/03/04 09:41:19;;;;;;;30.33;22.35;;;7.20;99.90;;;;;;4906482;29;20424;-78
2021/03/04 09:43:49;;;;;;;33.58;24.42;;;7.20;99.90;;;;;;4883923;29;20425;-78
2021/03/04 09:46:31;;;;;;;33.45;22.50;;;7.20;99.90;;;;;;4874527;29;20409;-78
2021/03/04 09:49:11;;;;;;;32.80;21.90;;;7.10;99.90;;;;;;4892550;29;20429;-78
2021/03/04 09:51:40;;;;;;;28.00;21.40;;;7.10;99.90;;;;;;4900415;29;20421;-78
2021/03/04 09:54:07;;;;;;;34.78;23.75;;;7.20;99.90;;;;;;4894635;29;20927;-78
2021/03/04 09:56:32;;;;;;;35.55;24.88;;;7.00;99.90;;;;;;4892775;29;20426;-78
2021/03/04 09:58:59;;;;;;;34.90;23.47;;;6.90;99.90;;;;;;4877977;29;20465;-78
2021/03/04 10:01:28;;;;;;;31.23;23.35;;;7.10;99.90;;;;;;4897452;29;20428;-78
2021/03/04 10:04:02;;;;;;;32.88;24.63;;;6.90;99.90;;;;;;4879379;29;20420;-78
2021/03/04 10:06:31;;;;;;;28.30;22.83;;;6.80;99.90;;;;;;4880270;29;20422;-78
2021/03/04 10:08:56;;;;;;;35.05;24.27;;;7.10;99.90;;;;;;4910082;29;20473;-78
2021/03/04 10:11:23;;;;;;;31.52;23.25;;;7.20;99.90;;;;;;4896899;29;20414;-78
2021/03/04 10:13:49;;;;;;;34.63;24.75;;;6.70;99.90;;;;;;4895344;29;20526;-80
2021/03/04 10:16:15;;;;;;;36.90;26.07;;;6.50;99.90;;;;;;4901494;29;20899;-80
2021/03/04 10:18:44;;;;;;;33.15;23.55;;;6.30;99.90;;;;;;4915197;29;20480;-81
2021/03/04 10:21:10;;;;;;;35.13;24.08;;;6.50;99.90;;;;;;4883696;29;20410;-80
2021/03/04 10:23:36;;;;;;;35.37;23.93;;;6.30;99.90;;;;;;4883005;29;20439;-79
2021/03/04 10:26:01;;;;;;;36.90;25.27;;;6.50;99.90;;;;;;4886099;29;20419;-79
2021/03/04 10:28:27;;;;;;;28.92;21.42;;;6.50;99.90;;;;;;4912418;29;20424;-79
2021/03/04 10:30:53;;;;;;;30.37;22.17;;;6.50;99.90;;;;;;4871361;29;20920;-79
2021/03/04 10:33:18;;;;;;;30.92;21.10;;;6.70;99.90;;;;;;4897091;29;20407;-79
2021/03/04 10:35:44;;;;;;;30.27;23.23;;;6.70;99.90;;;;;;4873284;29;20433;-80
2021/03/04 10:38:10;;;;;;;31.53;22.63;;;6.50;99.90;;;;;;4888060;29;20436;-79
2021/03/04 10:40:35;;;;;;;31.83;21.88;;;6.60;99.90;;;;;;4903003;29;20437;-79
2021/03/04 10:43:01;;;;;;;29.00;23.00;;;7.00;99.90;;;;;;4889460;29;20408;-79
2021/03/04 10:45:27;;;;;;;28.55;21.17;;;7.20;99.90;;;;;;4906178;29;20482;-79
2021/03/04 10:47:52;;;;;;;31.25;22.35;;;7.10;99.90;;;;;;4870419;29;20993;-79
2021/03/04 10:50:19;;;;;;;30.13;21.80;;;7.10;99.90;;;;;;4895774;29;20405;-77
2021/03/04 10:52:45;;;;;;;29.35;21.27;;;6.90;99.90;;;;;;4872315;29;20497;-77
2021/03/04 10:55:11;;;;;;;30.70;22.83;;;6.90;99.90;;;;;;4907159;29;20869;-76
2021/03/04 10:57:37;;;;;;;31.98;21.80;;;6.90;99.90;;;;;;4887489;29;20421;-77
2021/03/04 11:00:08;;;;;;;30.48;21.70;;;6.90;99.90;;;;;;4873743;29;20433;-77
2021/03/04 11:02:33;;;;;;;28.33;20.85;;;6.70;99.90;;;;;;4877397;29;20910;-77
2021/03/04 11:04:59;;;;;;;27.40;20.60;;;6.60;99.90;;;;;;4891150;29;20418;-77
2021/03/04 11:07:25;;;;;;;28.45;20.10;;;6.60;99.90;;;;;;4883313;29;21160;-78
2021/03/04 11:09:51;;;;;;;29.70;19.00;;;6.70;99.90;;;;;;4893747;29;20437;-78
2021/03/04 11:12:21;;;;;;;32.25;21.63;;;6.90;99.90;;;;;;4899362;29;20503;-79
2021/03/04 11:14:46;;;;;;;27.95;19.88;;;6.90;99.90;;;;;;4896698;29;20763;-79
2021/03/04 11:17:12;;;;;;;28.25;20.20;;;7.00;99.90;;;;;;4889707;29;20428;-79
2021/03/04 11:19:37;;;;;;;22.13;18.67;;;6.90;99.90;;;;;;4892749;29;20484;-79
2021/03/04 11:22:04;;;;;;;26.08;18.63;;;7.00;99.90;;;;;;4868183;29;20418;-77
2021/03/04 11:24:29;;;;;;;27.70;18.77;;;7.10;99.90;;;;;;4875652;29;20426;-79
2021/03/04 11:26:55;;;;;;;30.00;20.92;;;7.00;99.90;;;;;;4878827;29;20415;-78
2021/03/04 11:29:20;;;;;;;26.17;19.70;;;6.90;99.90;;;;;;4883216;29;20456;-78
2021/03/04 11:31:46;;;;;;;25.85;18.60;;;6.90;99.90;;;;;;4878066;29;20421;-77
2021/03/04 11:34:12;;;;;;;24.13;18.93;;;6.80;99.90;;;;;;4891373;29;20486;-79
2021/03/04 11:36:38;;;;;;;24.60;17.80;;;6.60;99.90;;;;;;4875021;29;20441;-79
2021/03/04 11:39:04;;;;;;;22.10;16.77;;;6.50;99.90;;;;;;4892787;29;20501;-77
2021/03/04 11:41:30;;;;;;;22.20;18.83;;;6.60;99.90;;;;;;4863963;29;20412;-77
2021/03/04 11:43:55;;;;;;;25.50;17.65;;;6.40;99.90;;;;;;4879724;29;20428;-77
2021/03/04 11:46:21;;;;;;;22.33;16.38;;;6.30;99.90;;;;;;4881010;29;20409;-77
2021/03/04 11:48:47;;;;;;;20.60;16.27;;;6.50;99.90;;;;;;4850429;29;20496;-77
2021/03/04 11:51:13;;;;;;;21.70;16.10;;;6.60;99.90;;;;;;4907610;29;20474;-77
2021/03/04 11:53:39;;;;;;;21.43;15.70;;;6.70;99.90;;;;;;4901502;29;20423;-78
2021/03/04 11:56:05;;;;;;;20.70;15.87;;;6.70;99.90;;;;;;4886106;29;20558;-77
2021/03/04 11:58:31;;;;;;;23.25;16.88;;;6.50;99.90;;;;;;4905693;29;20834;-77
2021/03/04 12:00:56;;;;;;;20.33;15.55;;;6.40;99.90;;;;;;4899584;29;20406;-77
2021/03/04 12:03:22;;;;;;;19.50;14.20;;;6.50;99.90;;;;;;4889433;29;20450;-78
2021/03/04 12:05:48;;;;;;;19.75;15.45;;;6.60;99.90;;;;;;4882839;29;20939;-77
2021/03/04 12:08:14;;;;;;;19.45;14.88;;;6.60;99.90;;;;;;4887185;29;20418;-77
2021/03/04 12:10:40;;;;;;;21.65;14.80;;;6.50;99.90;;;;;;4882885;29;20402;-77
2021/03/04 12:13:06;;;;;;;20.17;14.57;;;6.50;99.90;;;;;;4908461;29;20417;-77
2021/03/04 12:15:32;;;;;;;20.88;15.50;;;6.60;99.90;;;;;;4901706;29;20462;-77
2021/03/04 12:17:58;;;;;;;20.13;14.65;;;6.30;99.90;;;;;;4891432;29;20809;-78
2021/03/04 12:20:23;;;;;;;19.50;13.97;;;6.20;99.90;;;;;;4899399;29;20411;-77
2021/03/04 12:22:49;;;;;;;20.20;13.63;;;6.30;99.90;;;;;;4888156;29;20417;-77
2021/03/04 12:25:15;;;;;;;18.63;13.57;;;6.30;99.90;;;;;;4901242;29;20415;-78
2021/03/04 12:27:40;;;;;;;20.47;13.27;;;6.30;99.90;;;;;;4913012;29;20404;-77
2021/03/04 12:30:06;;;;;;;19.25;13.80;;;6.40;99.90;;;;;;4887996;29;20410;-77
2021/03/04 12:32:35;;;;;;;22.10;14.70;;;6.30;99.90;;;;;;4856168;29;20768;-78
2021/03/04 12:35:02;;;;;;;19.88;14.25;;;6.40;99.90;;;;;;4897363;29;20446;-77
2021/03/04 12:37:27;;;;;;;18.08;13.85;;;6.20;99.90;;;;;;4901232;29;20902;-77
2021/03/04 12:39:53;;;;;;;18.17;13.93;;;6.10;99.90;;;;;;4883177;29;20409;-77
2021/03/04 12:42:18;;;;;;;18.88;13.98;;;6.20;99.90;;;;;;4870767;29;20427;-78
2021/03/04 12:44:44;;;;;;;18.70;14.43;;;5.90;99.90;;;;;;4894630;29;20510;-77